< Typhoon 195803 1958 Season Typhoon 195805 >
Typhoon 195804 (NO-NAME)
General InformationTrack Information on Google Maps || Disaster Info.ResourceGoogle EarthGE AnimationAtom FeedGeoJSON
Detalied Best Track (Time Zone = UTC)
Year Month Day Hour Lat. Long. Pressure (hPa) Wind (kt) Class Image Chart
1958 5 26 18 14.5 113.5 1006 0 2 -- Chart
1958 5 27 00 14.7 114.5 1004 0 2 -- Chart
1958 5 27 06 14.9 115.0 1004 0 2 -- Chart
1958 5 27 12 15.0 116.0 1004 0 2 -- Chart
1958 5 27 18 15.2 116.6 1002 0 2 -- Chart
1958 5 28 00 16.0 117.0 1001 0 2 -- Chart
1958 5 28 06 17.0 116.8 1001 0 2 -- Chart
1958 5 28 12 17.3 116.5 1000 0 2 -- Chart
1958 5 28 18 17.4 115.5 1000 0 2 -- Chart
1958 5 29 00 17.6 114.5 1000 0 2 -- Chart
1958 5 29 06 18.0 114.0 998 0 2 -- Chart
1958 5 29 12 18.2 113.7 998 0 2 -- Chart
1958 5 29 18 18.5 113.5 998 0 2 -- Chart
1958 5 30 00 18.8 113.4 1000 0 2 -- Chart
1958 5 30 06 19.4 113.3 1000 0 2 -- Chart
1958 5 30 12 20.0 113.0 1000 0 2 -- Chart
1958 5 30 18 20.7 112.4 1000 0 2 -- Chart
1958 5 31 00 20.9 112.1 1000 0 2 -- Chart
1958 5 31 06 20.9 111.6 998 0 2 -- Chart
1958 5 31 12 20.5 112.0 998 0 2 -- Chart
1958 5 31 18 21.3 112.1 998 0 2 -- Chart
1958 6 1 00 21.8 112.1 998 0 2 -- Chart
1958 6 1 06 21.5 111.5 998 0 2 -- Chart
1958 6 1 12 21.0 111.0 996 0 2 -- Chart
1958 6 1 18 20.8 110.9 996 0 2 -- Chart
1958 6 2 00 20.1 110.8 992 0 2 -- Chart
1958 6 2 06 19.7 110.8 994 0 2 -- Chart
1958 6 2 12 19.5 110.5 994 0 2 -- Chart
1958 6 2 18 19.0 110.0 994 0 2 -- Chart
1958 6 3 00 19.0 109.6 996 0 2 -- Chart
1958 6 3 06 18.9 109.6 990 0 9 -- Chart
1958 6 3 12 18.6 108.6 990 0 9 -- Chart
1958 6 3 18 18.3 108.2 990 0 9 -- Chart
1958 6 4 00 18.5 107.7 990 0 9 -- Chart
1958 6 4 06 19.0 107.3 992 0 9 -- Chart
1958 6 4 12 19.5 106.9 994 0 9 -- Chart
1958 6 4 18 19.3 106.4 995 0 9 -- Chart
1958 6 5 00 19.0 106.0 998 0 9 -- Chart
1958 6 5 06 18.8 105.2 998 0 2 -- Chart
1958 6 5 12 18.8 104.5 998 0 2 -- Chart
1958 6 5 18 19.0 104.0 998 0 2 -- Chart
1958 6 6 00 19.2 104.2 1002 0 2 -- Chart
1958 6 6 06 20.0 105.0 1000 0 2 -- Chart
Japan Meteorological Agency Best Track Data | Correction Date : 1989-06-01
< Typhoon 195803 1958 Season Typhoon 195805 >

Help